sensor_id;sensor_type;location;lat;lon;timestamp;P1;durP1;ratioP1;P2;durP2;ratioP2
10134;SDS011;5107;48.850;8.924;2023-02-01T00:02:26;1.20;;;1.10;;
10134;SDS011;5107;48.850;8.924;2023-02-01T00:04:55;2.23;;;1.30;;
10134;SDS011;5107;48.850;8.924;2023-02-01T00:07:22;1.10;;;1.00;;
10134;SDS011;5107;48.850;8.924;2023-02-01T00:09:49;1.30;;;1.20;;
10134;SDS011;5107;48.850;8.924;2023-02-01T00:12:16;1.73;;;1.40;;
10134;SDS011;5107;48.850;8.924;2023-02-01T00:14:43;1.50;;;1.40;;
10134;SDS011;5107;48.850;8.924;2023-02-01T00:17:10;1.13;;;1.13;;
10134;SDS011;5107;48.850;8.924;2023-02-01T00:19:37;1.90;;;1.57;;
10134;SDS011;5107;48.850;8.924;2023-02-01T00:22:05;2.73;;;1.80;;
10134;SDS011;5107;48.850;8.924;2023-02-01T00:24:32;2.33;;;1.40;;
10134;SDS011;5107;48.850;8.924;2023-02-01T00:26:59;1.67;;;1.53;;
10134;SDS011;5107;48.850;8.924;2023-02-01T00:29:26;2.00;;;1.73;;
10134;SDS011;5107;48.850;8.924;2023-02-01T00:31:54;1.77;;;1.67;;
10134;SDS011;5107;48.850;8.924;2023-02-01T00:34:21;2.37;;;1.73;;
10134;SDS011;5107;48.850;8.924;2023-02-01T00:36:49;4.30;;;2.00;;
10134;SDS011;5107;48.850;8.924;2023-02-01T00:39:17;1.70;;;1.60;;
10134;SDS011;5107;48.850;8.924;2023-02-01T00:41:44;2.03;;;1.70;;
10134;SDS011;5107;48.850;8.924;2023-02-01T00:44:11;2.07;;;1.87;;
10134;SDS011;5107;48.850;8.924;2023-02-01T00:46:38;1.73;;;1.63;;
10134;SDS011;5107;48.850;8.924;2023-02-01T00:49:05;3.07;;;1.70;;
10134;SDS011;5107;48.850;8.924;2023-02-01T00:51:34;1.93;;;1.73;;
10134;SDS011;5107;48.850;8.924;2023-02-01T00:54:01;1.73;;;1.63;;
10134;SDS011;5107;48.850;8.924;2023-02-01T00:56:30;2.67;;;2.00;;
10134;SDS011;5107;48.850;8.924;2023-02-01T00:58:58;1.90;;;1.70;;
10134;SDS011;5107;48.850;8.924;2023-02-01T01:01:26;2.00;;;1.50;;
10134;SDS011;5107;48.850;8.924;2023-02-01T01:03:54;2.23;;;1.60;;
10134;SDS011;5107;48.850;8.924;2023-02-01T01:06:25;1.97;;;1.60;;
10134;SDS011;5107;48.850;8.924;2023-02-01T01:08:55;1.60;;;1.50;;
10134;SDS011;5107;48.850;8.924;2023-02-01T01:11:25;2.27;;;1.40;;
10134;SDS011;5107;48.850;8.924;2023-02-01T01:13:56;1.60;;;1.50;;
10134;SDS011;5107;48.850;8.924;2023-02-01T01:16:26;1.90;;;1.60;;
10134;SDS011;5107;48.850;8.924;2023-02-01T01:18:55;1.97;;;1.77;;
10134;SDS011;5107;48.850;8.924;2023-02-01T01:21:23;1.83;;;1.60;;
10134;SDS011;5107;48.850;8.924;2023-02-01T01:23:51;3.43;;;2.00;;
10134;SDS011;5107;48.850;8.924;2023-02-01T01:26:20;2.60;;;1.70;;
10134;SDS011;5107;48.850;8.924;2023-02-01T01:28:48;1.87;;;1.50;;
10134;SDS011;5107;48.850;8.924;2023-02-01T01:31:17;2.50;;;1.87;;
10134;SDS011;5107;48.850;8.924;2023-02-01T01:33:50;1.67;;;1.53;;
10134;SDS011;5107;48.850;8.924;2023-02-01T01:36:19;2.57;;;2.00;;
10134;SDS011;5107;48.850;8.924;2023-02-01T01:38:47;1.87;;;1.70;;
10134;SDS011;5107;48.850;8.924;2023-02-01T01:41:15;1.57;;;1.47;;
10134;SDS011;5107;48.850;8.924;2023-02-01T01:43:50;2.60;;;1.80;;
10134;SDS011;5107;48.850;8.924;2023-02-01T01:46:24;2.20;;;2.00;;
10134;SDS011;5107;48.850;8.924;2023-02-01T01:48:56;2.17;;;1.90;;
10134;SDS011;5107;48.850;8.924;2023-02-01T01:51:31;2.87;;;2.20;;
10134;SDS011;5107;48.850;8.924;2023-02-01T01:54:05;2.03;;;1.83;;
10134;SDS011;5107;48.850;8.924;2023-02-01T01:56:37;3.60;;;1.80;;
10134;SDS011;5107;48.850;8.924;2023-02-01T01:59:05;2.43;;;1.90;;
10134;SDS011;5107;48.850;8.924;2023-02-01T02:01:35;2.03;;;1.83;;
10134;SDS011;5107;48.850;8.924;2023-02-01T02:04:02;2.00;;;1.80;;
10134;SDS011;5107;48.850;8.924;2023-02-01T02:06:33;2.00;;;1.70;;
10134;SDS011;5107;48.850;8.924;2023-02-01T02:09:06;2.27;;;1.90;;
10134;SDS011;5107;48.850;8.924;2023-02-01T02:11:34;2.60;;;2.10;;
10134;SDS011;5107;48.850;8.924;2023-02-01T02:14:01;2.20;;;1.87;;
10134;SDS011;5107;48.850;8.924;2023-02-01T02:16:38;2.53;;;1.73;;
10134;SDS011;5107;48.850;8.924;2023-02-01T02:19:31;3.27;;;1.90;;
10134;SDS011;5107;48.850;8.924;2023-02-01T02:22:45;2.03;;;1.70;;
10134;SDS011;5107;48.850;8.924;2023-02-01T02:32:45;2.90;;;2.33;;
10134;SDS011;5107;48.850;8.924;2023-02-01T02:35:45;1.63;;;1.53;;
10134;SDS011;5107;48.850;8.924;2023-02-01T02:38:21;1.93;;;1.67;;
10134;SDS011;5107;48.850;8.924;2023-02-01T02:40:57;1.67;;;1.53;;
10134;SDS011;5107;48.850;8.924;2023-02-01T02:43:37;1.57;;;1.43;;
10134;SDS011;5107;48.850;8.924;2023-02-01T02:46:46;1.60;;;1.40;;
10134;SDS011;5107;48.850;8.924;2023-02-01T02:49:34;2.50;;;1.60;;
10134;SDS011;5107;48.850;8.924;2023-02-01T02:52:09;1.40;;;1.30;;
10134;SDS011;5107;48.850;8.924;2023-02-01T02:54:59;2.90;;;1.30;;
10134;SDS011;5107;48.850;8.924;2023-02-01T02:57:32;1.90;;;1.00;;
10134;SDS011;5107;48.850;8.924;2023-02-01T03:00:21;1.57;;;1.47;;
10134;SDS011;5107;48.850;8.924;2023-02-01T03:03:10;1.23;;;1.23;;
10134;SDS011;5107;48.850;8.924;2023-02-01T03:05:55;1.83;;;1.53;;
10134;SDS011;5107;48.850;8.924;2023-02-01T03:08:24;1.40;;;1.30;;
10134;SDS011;5107;48.850;8.924;2023-02-01T03:10:55;2.50;;;1.30;;
10134;SDS011;5107;48.850;8.924;2023-02-01T03:13:30;1.40;;;1.30;;
10134;SDS011;5107;48.850;8.924;2023-02-01T03:16:03;1.60;;;1.50;;
10134;SDS011;5107;48.850;8.924;2023-02-01T03:18:40;1.47;;;1.37;;
10134;SDS011;5107;48.850;8.924;2023-02-01T03:21:16;2.97;;;1.60;;
10134;SDS011;5107;48.850;8.924;2023-02-01T03:23:51;2.37;;;1.50;;
10134;SDS011;5107;48.850;8.924;2023-02-01T03:26:22;1.37;;;1.27;;
10134;SDS011;5107;48.850;8.924;2023-02-01T03:28:54;1.63;;;1.40;;
10134;SDS011;5107;48.850;8.924;2023-02-01T03:31:30;1.90;;;1.50;;
10134;SDS011;5107;48.850;8.924;2023-02-01T03:33:58;1.43;;;1.00;;
10134;SDS011;5107;48.850;8.924;2023-02-01T03:36:26;1.97;;;1.10;;
10134;SDS011;5107;48.850;8.924;2023-02-01T03:39:00;1.53;;;1.30;;
10134;SDS011;5107;48.850;8.924;2023-02-01T03:41:34;1.63;;;1.30;;
10134;SDS011;5107;48.850;8.924;2023-02-01T03:44:08;1.20;;;1.10;;
10134;SDS011;5107;48.850;8.924;2023-02-01T03:46:43;1.23;;;1.13;;
10134;SDS011;5107;48.850;8.924;2023-02-01T03:49:18;1.60;;;1.50;;
10134;SDS011;5107;48.850;8.924;2023-02-01T03:51:51;1.60;;;1.50;;
10134;SDS011;5107;48.850;8.924;2023-02-01T03:54:21;1.70;;;1.60;;
10134;SDS011;5107;48.850;8.924;2023-02-01T03:56:49;1.83;;;1.27;;
10134;SDS011;5107;48.850;8.924;2023-02-01T03:59:20;2.07;;;1.50;;
10134;SDS011;5107;48.850;8.924;2023-02-01T04:01:47;1.17;;;1.07;;
10134;SDS011;5107;48.850;8.924;2023-02-01T04:04:14;1.60;;;1.33;;
10134;SDS011;5107;48.850;8.924;2023-02-01T04:06:45;1.50;;;1.40;;
10134;SDS011;5107;48.850;8.924;2023-02-01T04:09:13;1.60;;;1.50;;
10134;SDS011;5107;48.850;8.924;2023-02-01T04:11:41;2.47;;;1.60;;
10134;SDS011;5107;48.850;8.924;2023-02-01T04:14:09;3.00;;;1.53;;
10134;SDS011;5107;48.850;8.924;2023-02-01T04:16:36;1.60;;;1.50;;
10134;SDS011;5107;48.850;8.924;2023-02-01T04:19:03;2.63;;;1.70;;
10134;SDS011;5107;48.850;8.924;2023-02-01T04:21:30;2.27;;;1.50;;
10134;SDS011;5107;48.850;8.924;2023-02-01T04:23:57;11.97;;;4.93;;
10134;SDS011;5107;48.850;8.924;2023-02-01T04:26:24;10.40;;;4.83;;
10134;SDS011;5107;48.850;8.924;2023-02-01T04:28:53;6.07;;;3.10;;
10134;SDS011;5107;48.850;8.924;2023-02-01T04:31:20;2.03;;;1.80;;
10134;SDS011;5107;48.850;8.924;2023-02-01T04:33:50;3.10;;;1.47;;
10134;SDS011;5107;48.850;8.924;2023-02-01T04:36:18;1.83;;;1.60;;
10134;SDS011;5107;48.850;8.924;2023-02-01T04:38:47;2.27;;;1.77;;
10134;SDS011;5107;48.850;8.924;2023-02-01T04:41:14;2.70;;;1.60;;
10134;SDS011;5107;48.850;8.924;2023-02-01T04:43:44;2.80;;;1.50;;
10134;SDS011;5107;48.850;8.924;2023-02-01T04:46:12;2.07;;;1.60;;
10134;SDS011;5107;48.850;8.924;2023-02-01T04:48:40;3.00;;;1.70;;
10134;SDS011;5107;48.850;8.924;2023-02-01T04:51:07;3.03;;;1.80;;
10134;SDS011;5107;48.850;8.924;2023-02-01T04:53:35;2.27;;;1.60;;
10134;SDS011;5107;48.850;8.924;2023-02-01T04:56:02;3.60;;;1.50;;
10134;SDS011;5107;48.850;8.924;2023-02-01T04:58:31;2.87;;;2.00;;
10134;SDS011;5107;48.850;8.924;2023-02-01T05:00:58;2.10;;;1.90;;
10134;SDS011;5107;48.850;8.924;2023-02-01T05:03:29;2.03;;;1.57;;
10134;SDS011;5107;48.850;8.924;2023-02-01T05:05:56;2.53;;;2.00;;
10134;SDS011;5107;48.850;8.924;2023-02-01T05:08:23;3.10;;;1.77;;
10134;SDS011;5107;48.850;8.924;2023-02-01T05:10:51;2.20;;;1.80;;
10134;SDS011;5107;48.850;8.924;2023-02-01T05:13:18;1.77;;;1.67;;
10134;SDS011;5107;48.850;8.924;2023-02-01T05:16:03;3.63;;;2.60;;
10134;SDS011;5107;48.850;8.924;2023-02-01T05:18:32;2.33;;;2.13;;
10134;SDS011;5107;48.850;8.924;2023-02-01T05:20:59;5.70;;;2.73;;
10134;SDS011;5107;48.850;8.924;2023-02-01T05:23:27;2.97;;;2.00;;
10134;SDS011;5107;48.850;8.924;2023-02-01T05:25:57;3.97;;;2.30;;
10134;SDS011;5107;48.850;8.924;2023-02-01T05:28:26;3.23;;;1.90;;
10134;SDS011;5107;48.850;8.924;2023-02-01T05:30:54;3.00;;;2.23;;
10134;SDS011;5107;48.850;8.924;2023-02-01T05:33:21;4.13;;;2.10;;
10134;SDS011;5107;48.850;8.924;2023-02-01T05:35:49;3.50;;;2.10;;
10134;SDS011;5107;48.850;8.924;2023-02-01T05:38:16;2.80;;;1.90;;
10134;SDS011;5107;48.850;8.924;2023-02-01T05:40:43;3.43;;;1.87;;
10134;SDS011;5107;48.850;8.924;2023-02-01T05:43:14;2.53;;;1.97;;
10134;SDS011;5107;48.850;8.924;2023-02-01T05:45:42;2.33;;;2.07;;
10134;SDS011;5107;48.850;8.924;2023-02-01T05:48:09;4.87;;;2.13;;
10134;SDS011;5107;48.850;8.924;2023-02-01T05:50:36;1.67;;;1.57;;
10134;SDS011;5107;48.850;8.924;2023-02-01T05:53:09;2.70;;;2.10;;
10134;SDS011;5107;48.850;8.924;2023-02-01T05:55:36;2.57;;;2.07;;
10134;SDS011;5107;48.850;8.924;2023-02-01T05:58:04;4.20;;;2.13;;
10134;SDS011;5107;48.850;8.924;2023-02-01T06:00:32;2.83;;;2.23;;
10134;SDS011;5107;48.850;8.924;2023-02-01T06:02:59;2.20;;;2.00;;
10134;SDS011;5107;48.850;8.924;2023-02-01T06:05:26;2.60;;;2.03;;
10134;SDS011;5107;48.850;8.924;2023-02-01T06:07:53;2.40;;;2.20;;
10134;SDS011;5107;48.850;8.924;2023-02-01T06:10:22;4.20;;;2.60;;
10134;SDS011;5107;48.850;8.924;2023-02-01T06:12:49;5.10;;;3.20;;
10134;SDS011;5107;48.850;8.924;2023-02-01T06:15:16;5.00;;;3.07;;
10134;SDS011;5107;48.850;8.924;2023-02-01T06:17:44;5.63;;;3.23;;
10134;SDS011;5107;48.850;8.924;2023-02-01T06:20:13;4.40;;;3.10;;
10134;SDS011;5107;48.850;8.924;2023-02-01T06:22:42;6.17;;;3.53;;
10134;SDS011;5107;48.850;8.924;2023-02-01T06:25:09;5.53;;;3.80;;
10134;SDS011;5107;48.850;8.924;2023-02-01T06:27:38;5.33;;;3.67;;
10134;SDS011;5107;48.850;8.924;2023-02-01T06:30:06;5.07;;;3.73;;
10134;SDS011;5107;48.850;8.924;2023-02-01T06:32:35;5.07;;;3.80;;
10134;SDS011;5107;48.850;8.924;2023-02-01T06:35:02;7.20;;;4.07;;
10134;SDS011;5107;48.850;8.924;2023-02-01T06:37:30;5.63;;;3.93;;
10134;SDS011;5107;48.850;8.924;2023-02-01T06:39:57;9.17;;;4.13;;
10134;SDS011;5107;48.850;8.924;2023-02-01T06:42:24;8.00;;;4.60;;
10134;SDS011;5107;48.850;8.924;2023-02-01T06:44:53;7.97;;;4.67;;
10134;SDS011;5107;48.850;8.924;2023-02-01T06:47:20;7.47;;;3.77;;
10134;SDS011;5107;48.850;8.924;2023-02-01T06:49:47;8.07;;;4.00;;
10134;SDS011;5107;48.850;8.924;2023-02-01T06:52:14;9.03;;;4.80;;
10134;SDS011;5107;48.850;8.924;2023-02-01T06:54:41;8.43;;;4.50;;
10134;SDS011;5107;48.850;8.924;2023-02-01T06:57:08;6.60;;;3.97;;
10134;SDS011;5107;48.850;8.924;2023-02-01T06:59:35;9.10;;;4.20;;
10134;SDS011;5107;48.850;8.924;2023-02-01T07:02:04;6.67;;;3.70;;
10134;SDS011;5107;48.850;8.924;2023-02-01T07:04:32;6.50;;;3.50;;
10134;SDS011;5107;48.850;8.924;2023-02-01T07:06:59;6.40;;;3.23;;
10134;SDS011;5107;48.850;8.924;2023-02-01T07:09:26;6.50;;;3.97;;
10134;SDS011;5107;48.850;8.924;2023-02-01T07:11:53;6.63;;;3.47;;
10134;SDS011;5107;48.850;8.924;2023-02-01T07:14:20;10.60;;;4.80;;
10134;SDS011;5107;48.850;8.924;2023-02-01T07:16:47;12.57;;;5.83;;
10134;SDS011;5107;48.850;8.924;2023-02-01T07:19:15;11.63;;;5.70;;
10134;SDS011;5107;48.850;8.924;2023-02-01T07:21:42;7.30;;;4.10;;
10134;SDS011;5107;48.850;8.924;2023-02-01T07:24:09;22.67;;;11.30;;
10134;SDS011;5107;48.850;8.924;2023-02-01T07:26:36;11.27;;;5.13;;
10134;SDS011;5107;48.850;8.924;2023-02-01T07:29:03;7.50;;;4.10;;
10134;SDS011;5107;48.850;8.924;2023-02-01T07:31:30;5.57;;;4.07;;
10134;SDS011;5107;48.850;8.924;2023-02-01T07:33:57;8.80;;;4.43;;
10134;SDS011;5107;48.850;8.924;2023-02-01T07:36:27;9.03;;;3.80;;
10134;SDS011;5107;48.850;8.924;2023-02-01T07:38:54;8.00;;;4.13;;
10134;SDS011;5107;48.850;8.924;2023-02-01T07:41:21;10.23;;;4.07;;
10134;SDS011;5107;48.850;8.924;2023-02-01T07:43:48;12.60;;;5.00;;
10134;SDS011;5107;48.850;8.924;2023-02-01T07:46:18;9.97;;;4.20;;
10134;SDS011;5107;48.850;8.924;2023-02-01T07:48:45;9.20;;;4.00;;
10134;SDS011;5107;48.850;8.924;2023-02-01T07:51:13;11.03;;;3.90;;
10134;SDS011;5107;48.850;8.924;2023-02-01T07:53:44;5.47;;;3.43;;
10134;SDS011;5107;48.850;8.924;2023-02-01T07:56:12;12.17;;;4.43;;
10134;SDS011;5107;48.850;8.924;2023-02-01T07:58:42;9.40;;;3.80;;
10134;SDS011;5107;48.850;8.924;2023-02-01T08:01:13;8.27;;;3.80;;
10134;SDS011;5107;48.850;8.924;2023-02-01T08:03:50;7.17;;;4.10;;
10134;SDS011;5107;48.850;8.924;2023-02-01T08:06:18;11.80;;;4.27;;
10134;SDS011;5107;48.850;8.924;2023-02-01T08:08:47;9.03;;;4.03;;
10134;SDS011;5107;48.850;8.924;2023-02-01T08:11:16;8.53;;;3.77;;
10134;SDS011;5107;48.850;8.924;2023-02-01T08:13:44;9.57;;;3.70;;
10134;SDS011;5107;48.850;8.924;2023-02-01T08:16:12;7.50;;;3.37;;
10134;SDS011;5107;48.850;8.924;2023-02-01T08:18:41;6.57;;;3.27;;
10134;SDS011;5107;48.850;8.924;2023-02-01T08:21:09;7.70;;;4.37;;
10134;SDS011;5107;48.850;8.924;2023-02-01T08:23:39;7.93;;;3.60;;
10134;SDS011;5107;48.850;8.924;2023-02-01T08:26:09;5.67;;;2.90;;
10134;SDS011;5107;48.850;8.924;2023-02-01T08:28:39;10.87;;;3.30;;
10134;SDS011;5107;48.850;8.924;2023-02-01T08:31:09;10.37;;;3.13;;
10134;SDS011;5107;48.850;8.924;2023-02-01T08:33:39;8.47;;;3.07;;
10134;SDS011;5107;48.850;8.924;2023-02-01T08:36:08;6.77;;;3.53;;
10134;SDS011;5107;48.850;8.924;2023-02-01T08:38:36;5.47;;;2.80;;
10134;SDS011;5107;48.850;8.924;2023-02-01T08:41:05;8.63;;;3.37;;
10134;SDS011;5107;48.850;8.924;2023-02-01T08:43:35;8.57;;;3.20;;
10134;SDS011;5107;48.850;8.924;2023-02-01T08:46:03;8.77;;;3.23;;
10134;SDS011;5107;48.850;8.924;2023-02-01T08:48:31;7.50;;;3.50;;
10134;SDS011;5107;48.850;8.924;2023-02-01T08:51:00;9.63;;;3.17;;
10134;SDS011;5107;48.850;8.924;2023-02-01T08:53:29;7.33;;;3.37;;
10134;SDS011;5107;48.850;8.924;2023-02-01T08:55:56;8.80;;;2.93;;
10134;SDS011;5107;48.850;8.924;2023-02-01T08:58:24;8.73;;;3.90;;
10134;SDS011;5107;48.850;8.924;2023-02-01T09:00:53;6.50;;;3.00;;
10134;SDS011;5107;48.850;8.924;2023-02-01T09:03:20;6.93;;;2.83;;
10134;SDS011;5107;48.850;8.924;2023-02-01T09:05:48;5.80;;;2.90;;
10134;SDS011;5107;48.850;8.924;2023-02-01T09:08:15;7.53;;;3.00;;
10134;SDS011;5107;48.850;8.924;2023-02-01T09:10:43;7.90;;;3.00;;
10134;SDS011;5107;48.850;8.924;2023-02-01T09:13:11;6.57;;;2.93;;
10134;SDS011;5107;48.850;8.924;2023-02-01T09:15:38;6.90;;;2.90;;
10134;SDS011;5107;48.850;8.924;2023-02-01T09:18:06;9.00;;;3.40;;
10134;SDS011;5107;48.850;8.924;2023-02-01T09:20:34;10.33;;;2.93;;
10134;SDS011;5107;48.850;8.924;2023-02-01T09:23:02;8.93;;;3.27;;
10134;SDS011;5107;48.850;8.924;2023-02-01T09:25:31;7.37;;;2.93;;
10134;SDS011;5107;48.850;8.924;2023-02-01T09:27:58;9.60;;;3.17;;
10134;SDS011;5107;48.850;8.924;2023-02-01T09:30:25;4.87;;;2.33;;
10134;SDS011;5107;48.850;8.924;2023-02-01T09:32:52;10.07;;;2.87;;
10134;SDS011;5107;48.850;8.924;2023-02-01T09:35:21;6.47;;;2.90;;
10134;SDS011;5107;48.850;8.924;2023-02-01T09:37:48;8.67;;;3.10;;
10134;SDS011;5107;48.850;8.924;2023-02-01T09:40:15;7.83;;;2.43;;
10134;SDS011;5107;48.850;8.924;2023-02-01T09:42:51;8.80;;;3.00;;
10134;SDS011;5107;48.850;8.924;2023-02-01T09:45:39;6.43;;;2.37;;
10134;SDS011;5107;48.850;8.924;2023-02-01T09:48:17;8.30;;;2.87;;
10134;SDS011;5107;48.850;8.924;2023-02-01T09:50:50;5.30;;;2.47;;
10134;SDS011;5107;48.850;8.924;2023-02-01T09:53:21;7.80;;;2.80;;
10134;SDS011;5107;48.850;8.924;2023-02-01T09:55:55;9.17;;;3.07;;
10134;SDS011;5107;48.850;8.924;2023-02-01T09:58:30;9.27;;;2.83;;
10134;SDS011;5107;48.850;8.924;2023-02-01T10:01:02;9.30;;;3.00;;
10134;SDS011;5107;48.850;8.924;2023-02-01T10:03:32;5.57;;;2.60;;
10134;SDS011;5107;48.850;8.924;2023-02-01T10:06:06;7.90;;;2.73;;
10134;SDS011;5107;48.850;8.924;2023-02-01T10:08:59;6.07;;;2.60;;
10134;SDS011;5107;48.850;8.924;2023-02-01T10:11:44;12.00;;;2.90;;
10134;SDS011;5107;48.850;8.924;2023-02-01T10:14:32;8.27;;;2.80;;
10134;SDS011;5107;48.850;8.924;2023-02-01T10:17:22;9.00;;;3.07;;
10134;SDS011;5107;48.850;8.924;2023-02-01T10:20:07;8.27;;;2.67;;
10134;SDS011;5107;48.850;8.924;2023-02-01T10:22:44;9.30;;;2.93;;
10134;SDS011;5107;48.850;8.924;2023-02-01T10:25:17;7.43;;;2.63;;
10134;SDS011;5107;48.850;8.924;2023-02-01T10:27:51;10.27;;;3.10;;
10134;SDS011;5107;48.850;8.924;2023-02-01T10:30:20;7.97;;;2.80;;
10134;SDS011;5107;48.850;8.924;2023-02-01T10:32:52;8.90;;;2.90;;
10134;SDS011;5107;48.850;8.924;2023-02-01T10:35:24;7.70;;;2.30;;
10134;SDS011;5107;48.850;8.924;2023-02-01T10:37:59;7.33;;;2.83;;
10134;SDS011;5107;48.850;8.924;2023-02-01T10:40:28;9.87;;;3.00;;
10134;SDS011;5107;48.850;8.924;2023-02-01T10:42:56;6.87;;;2.93;;
10134;SDS011;5107;48.850;8.924;2023-02-01T10:45:27;8.70;;;2.57;;
10134;SDS011;5107;48.850;8.924;2023-02-01T10:47:57;9.67;;;2.73;;
10134;SDS011;5107;48.850;8.924;2023-02-01T10:50:29;8.33;;;2.50;;
10134;SDS011;5107;48.850;8.924;2023-02-01T10:53:06;6.57;;;2.23;;
10134;SDS011;5107;48.850;8.924;2023-02-01T10:55:41;6.77;;;2.33;;
10134;SDS011;5107;48.850;8.924;2023-02-01T10:58:16;7.27;;;2.43;;
10134;SDS011;5107;48.850;8.924;2023-02-01T11:00:46;7.37;;;2.63;;
10134;SDS011;5107;48.850;8.924;2023-02-01T11:03:19;14.40;;;5.70;;
10134;SDS011;5107;48.850;8.924;2023-02-01T11:06:02;7.40;;;2.70;;
10134;SDS011;5107;48.850;8.924;2023-02-01T11:08:51;8.70;;;2.80;;
10134;SDS011;5107;48.850;8.924;2023-02-01T11:11:20;10.63;;;2.70;;
10134;SDS011;5107;48.850;8.924;2023-02-01T11:13:52;9.47;;;2.27;;
10134;SDS011;5107;48.850;8.924;2023-02-01T11:16:23;11.03;;;3.00;;
10134;SDS011;5107;48.850;8.924;2023-02-01T11:19:03;6.23;;;2.60;;
10134;SDS011;5107;48.850;8.924;2023-02-01T11:21:32;8.07;;;2.33;;
10134;SDS011;5107;48.850;8.924;2023-02-01T11:24:02;10.97;;;3.30;;
10134;SDS011;5107;48.850;8.924;2023-02-01T11:26:34;7.20;;;2.20;;
10134;SDS011;5107;48.850;8.924;2023-02-01T11:29:09;6.00;;;2.60;;
10134;SDS011;5107;48.850;8.924;2023-02-01T11:31:39;8.50;;;2.50;;
10134;SDS011;5107;48.850;8.924;2023-02-01T11:34:08;8.33;;;2.67;;
10134;SDS011;5107;48.850;8.924;2023-02-01T11:36:40;7.20;;;2.20;;
10134;SDS011;5107;48.850;8.924;2023-02-01T11:39:18;6.27;;;2.57;;
10134;SDS011;5107;48.850;8.924;2023-02-01T11:41:55;5.33;;;1.87;;
10134;SDS011;5107;48.850;8.924;2023-02-01T11:44:31;7.27;;;1.70;;
10134;SDS011;5107;48.850;8.924;2023-02-01T11:47:21;4.33;;;2.00;;
10134;SDS011;5107;48.850;8.924;2023-02-01T11:49:52;5.17;;;2.00;;
10134;SDS011;5107;48.850;8.924;2023-02-01T11:52:26;7.50;;;2.43;;
10134;SDS011;5107;48.850;8.924;2023-02-01T11:55:17;8.50;;;2.37;;
10134;SDS011;5107;48.850;8.924;2023-02-01T11:58:06;6.40;;;2.10;;
10134;SDS011;5107;48.850;8.924;2023-02-01T12:00:59;9.13;;;2.30;;
10134;SDS011;5107;48.850;8.924;2023-02-01T12:03:54;12.57;;;2.23;;
10134;SDS011;5107;48.850;8.924;2023-02-01T12:07:04;9.33;;;2.17;;
10134;SDS011;5107;48.850;8.924;2023-02-01T12:09:46;7.70;;;2.50;;
10134;SDS011;5107;48.850;8.924;2023-02-01T12:12:31;4.93;;;2.17;;
10134;SDS011;5107;48.850;8.924;2023-02-01T12:15:12;6.43;;;2.13;;
10134;SDS011;5107;48.850;8.924;2023-02-01T12:18:08;10.43;;;2.43;;
10134;SDS011;5107;48.850;8.924;2023-02-01T12:20:59;9.13;;;2.30;;
10134;SDS011;5107;48.850;8.924;2023-02-01T12:23:52;6.73;;;1.80;;
10134;SDS011;5107;48.850;8.924;2023-02-01T12:26:44;7.17;;;2.17;;
10134;SDS011;5107;48.850;8.924;2023-02-01T12:29:32;6.00;;;2.40;;
10134;SDS011;5107;48.850;8.924;2023-02-01T12:32:18;5.43;;;2.40;;
10134;SDS011;5107;48.850;8.924;2023-02-01T12:38:11;7.43;;;2.67;;
10134;SDS011;5107;48.850;8.924;2023-02-01T12:40:54;7.90;;;2.13;;
10134;SDS011;5107;48.850;8.924;2023-02-01T12:43:37;7.73;;;2.47;;
10134;SDS011;5107;48.850;8.924;2023-02-01T12:46:12;6.70;;;2.50;;
10134;SDS011;5107;48.850;8.924;2023-02-01T12:48:48;6.90;;;2.43;;
10134;SDS011;5107;48.850;8.924;2023-02-01T12:51:23;4.93;;;2.20;;
10134;SDS011;5107;48.850;8.924;2023-02-01T12:53:56;6.47;;;2.57;;
10134;SDS011;5107;48.850;8.924;2023-02-01T12:56:30;9.07;;;2.57;;
10134;SDS011;5107;48.850;8.924;2023-02-01T12:59:04;7.47;;;2.77;;
10134;SDS011;5107;48.850;8.924;2023-02-01T13:01:45;9.27;;;2.70;;
10134;SDS011;5107;48.850;8.924;2023-02-01T13:04:24;5.10;;;2.40;;
10134;SDS011;5107;48.850;8.924;2023-02-01T13:07:00;9.83;;;2.77;;
10134;SDS011;5107;48.850;8.924;2023-02-01T13:09:36;9.27;;;2.53;;
10134;SDS011;5107;48.850;8.924;2023-02-01T13:12:11;9.03;;;2.57;;
10134;SDS011;5107;48.850;8.924;2023-02-01T13:14:43;7.67;;;2.53;;
10134;SDS011;5107;48.850;8.924;2023-02-01T13:17:18;5.90;;;2.57;;
10134;SDS011;5107;48.850;8.924;2023-02-01T13:19:50;9.47;;;2.57;;
10134;SDS011;5107;48.850;8.924;2023-02-01T13:22:23;6.80;;;2.00;;
10134;SDS011;5107;48.850;8.924;2023-02-01T13:24:56;8.77;;;2.40;;
10134;SDS011;5107;48.850;8.924;2023-02-01T13:27:26;9.27;;;2.67;;
10134;SDS011;5107;48.850;8.924;2023-02-01T13:29:56;11.50;;;2.90;;
10134;SDS011;5107;48.850;8.924;2023-02-01T13:35:45;6.10;;;2.27;;
10134;SDS011;5107;48.850;8.924;2023-02-01T13:39:02;5.97;;;2.37;;
10134;SDS011;5107;48.850;8.924;2023-02-01T13:42:00;7.13;;;2.40;;
10134;SDS011;5107;48.850;8.924;2023-02-01T13:44:31;9.03;;;2.50;;
10134;SDS011;5107;48.850;8.924;2023-02-01T13:47:09;5.40;;;2.63;;
10134;SDS011;5107;48.850;8.924;2023-02-01T13:49:49;7.10;;;2.27;;
10134;SDS011;5107;48.850;8.924;2023-02-01T13:52:23;8.90;;;2.73;;
10134;SDS011;5107;48.850;8.924;2023-02-01T13:55:02;9.70;;;2.87;;
10134;SDS011;5107;48.850;8.924;2023-02-01T13:58:06;6.20;;;2.50;;
10134;SDS011;5107;48.850;8.924;2023-02-01T14:00:43;6.70;;;2.73;;
10134;SDS011;5107;48.850;8.924;2023-02-01T14:03:15;7.70;;;2.23;;
10134;SDS011;5107;48.850;8.924;2023-02-01T14:05:59;10.07;;;3.73;;
10134;SDS011;5107;48.850;8.924;2023-02-01T14:08:37;8.67;;;2.63;;
10134;SDS011;5107;48.850;8.924;2023-02-01T14:23:13;10.63;;;2.73;;
10134;SDS011;5107;48.850;8.924;2023-02-01T14:26:06;8.87;;;2.77;;
10134;SDS011;5107;48.850;8.924;2023-02-01T14:28:45;8.90;;;2.90;;
10134;SDS011;5107;48.850;8.924;2023-02-01T14:31:30;9.20;;;3.17;;
10134;SDS011;5107;48.850;8.924;2023-02-01T14:34:18;5.00;;;2.40;;
10134;SDS011;5107;48.850;8.924;2023-02-01T14:36:52;8.60;;;2.60;;
10134;SDS011;5107;48.850;8.924;2023-02-01T14:39:27;6.63;;;2.50;;
10134;SDS011;5107;48.850;8.924;2023-02-01T14:42:01;10.00;;;2.93;;
10134;SDS011;5107;48.850;8.924;2023-02-01T14:44:33;11.13;;;2.90;;
10134;SDS011;5107;48.850;8.924;2023-02-01T14:47:07;13.63;;;3.00;;
10134;SDS011;5107;48.850;8.924;2023-02-01T14:49:55;7.00;;;2.60;;
10134;SDS011;5107;48.850;8.924;2023-02-01T14:52:39;3.87;;;1.90;;
10134;SDS011;5107;48.850;8.924;2023-02-01T14:55:12;9.90;;;2.30;;
10134;SDS011;5107;48.850;8.924;2023-02-01T14:57:44;6.17;;;2.53;;
10134;SDS011;5107;48.850;8.924;2023-02-01T15:00:17;11.23;;;2.73;;
10134;SDS011;5107;48.850;8.924;2023-02-01T15:02:50;8.53;;;2.50;;
10134;SDS011;5107;48.850;8.924;2023-02-01T15:05:22;10.17;;;2.40;;
10134;SDS011;5107;48.850;8.924;2023-02-01T15:07:57;8.20;;;2.70;;
10134;SDS011;5107;48.850;8.924;2023-02-01T15:10:33;13.97;;;2.57;;
10134;SDS011;5107;48.850;8.924;2023-02-01T15:13:12;4.73;;;2.10;;
10134;SDS011;5107;48.850;8.924;2023-02-01T15:18:31;7.10;;;2.43;;
10134;SDS011;5107;48.850;8.924;2023-02-01T15:20:59;8.20;;;2.80;;
10134;SDS011;5107;48.850;8.924;2023-02-01T15:23:28;8.97;;;2.23;;
10134;SDS011;5107;48.850;8.924;2023-02-01T15:25:57;8.17;;;2.40;;
10134;SDS011;5107;48.850;8.924;2023-02-01T15:28:25;8.77;;;2.47;;
10134;SDS011;5107;48.850;8.924;2023-02-01T15:30:53;6.70;;;2.33;;
10134;SDS011;5107;48.850;8.924;2023-02-01T15:33:23;7.73;;;2.30;;
10134;SDS011;5107;48.850;8.924;2023-02-01T15:35:51;6.30;;;2.40;;
10134;SDS011;5107;48.850;8.924;2023-02-01T15:38:30;11.87;;;4.87;;
10134;SDS011;5107;48.850;8.924;2023-02-01T15:41:04;8.67;;;2.30;;
10134;SDS011;5107;48.850;8.924;2023-02-01T15:43:39;7.27;;;2.30;;
10134;SDS011;5107;48.850;8.924;2023-02-01T15:46:11;4.90;;;2.20;;
10134;SDS011;5107;48.850;8.924;2023-02-01T15:48:45;7.73;;;2.60;;
10134;SDS011;5107;48.850;8.924;2023-02-01T15:51:16;7.60;;;2.63;;
10134;SDS011;5107;48.850;8.924;2023-02-01T15:53:49;9.93;;;2.70;;
10134;SDS011;5107;48.850;8.924;2023-02-01T15:56:23;6.67;;;2.03;;
10134;SDS011;5107;48.850;8.924;2023-02-01T15:58:53;7.23;;;2.53;;
10134;SDS011;5107;48.850;8.924;2023-02-01T16:01:24;10.60;;;2.73;;
10134;SDS011;5107;48.850;8.924;2023-02-01T16:04:01;10.57;;;2.80;;